sensor_id;sensor_type;location;lat;lon;timestamp;P1;durP1;ratioP1;P2;durP2;ratioP2
13218;SDS011;6674;49.152;11.918;2022-09-17T00:02:12;2.93;;;2.73;;
13218;SDS011;6674;49.152;11.918;2022-09-17T00:04:38;3.10;;;2.80;;
13218;SDS011;6674;49.152;11.918;2022-09-17T00:07:05;2.80;;;2.60;;
13218;SDS011;6674;49.152;11.918;2022-09-17T00:09:33;2.93;;;2.67;;
13218;SDS011;6674;49.152;11.918;2022-09-17T00:12:00;3.10;;;2.80;;
13218;SDS011;6674;49.152;11.918;2022-09-17T00:14:27;3.43;;;2.93;;
13218;SDS011;6674;49.152;11.918;2022-09-17T00:16:53;2.90;;;2.70;;
13218;SDS011;6674;49.152;11.918;2022-09-17T00:19:21;3.73;;;2.40;;
13218;SDS011;6674;49.152;11.918;2022-09-17T00:21:49;3.80;;;2.50;;
13218;SDS011;6674;49.152;11.918;2022-09-17T00:24:17;3.40;;;3.10;;
13218;SDS011;6674;49.152;11.918;2022-09-17T00:26:46;3.30;;;3.10;;
13218;SDS011;6674;49.152;11.918;2022-09-17T00:29:13;3.30;;;2.80;;
13218;SDS011;6674;49.152;11.918;2022-09-17T00:31:40;2.80;;;2.60;;
13218;SDS011;6674;49.152;11.918;2022-09-17T00:34:07;2.83;;;2.63;;
13218;SDS011;6674;49.152;11.918;2022-09-17T00:36:34;3.03;;;2.53;;
13218;SDS011;6674;49.152;11.918;2022-09-17T00:39:01;2.83;;;2.63;;
13218;SDS011;6674;49.152;11.918;2022-09-17T00:41:30;3.50;;;3.10;;
13218;SDS011;6674;49.152;11.918;2022-09-17T00:44:00;4.17;;;3.10;;
13218;SDS011;6674;49.152;11.918;2022-09-17T00:46:29;2.90;;;2.70;;
13218;SDS011;6674;49.152;11.918;2022-09-17T00:48:58;2.70;;;2.50;;
13218;SDS011;6674;49.152;11.918;2022-09-17T00:51:29;2.80;;;2.60;;
13218;SDS011;6674;49.152;11.918;2022-09-17T00:53:58;3.50;;;2.93;;
13218;SDS011;6674;49.152;11.918;2022-09-17T00:56:27;3.40;;;3.10;;
13218;SDS011;6674;49.152;11.918;2022-09-17T00:58:56;4.67;;;3.33;;
13218;SDS011;6674;49.152;11.918;2022-09-17T01:01:24;5.10;;;3.13;;
13218;SDS011;6674;49.152;11.918;2022-09-17T01:03:51;3.33;;;3.00;;
13218;SDS011;6674;49.152;11.918;2022-09-17T01:06:20;3.23;;;2.93;;
13218;SDS011;6674;49.152;11.918;2022-09-17T01:09:07;3.10;;;2.80;;
13218;SDS011;6674;49.152;11.918;2022-09-17T01:11:50;3.67;;;2.93;;
13218;SDS011;6674;49.152;11.918;2022-09-17T01:14:31;3.63;;;3.33;;
13218;SDS011;6674;49.152;11.918;2022-09-17T01:17:09;4.67;;;3.43;;
13218;SDS011;6674;49.152;11.918;2022-09-17T01:19:47;4.43;;;3.33;;
13218;SDS011;6674;49.152;11.918;2022-09-17T01:22:30;6.63;;;3.57;;
13218;SDS011;6674;49.152;11.918;2022-09-17T01:25:03;3.13;;;2.90;;
13218;SDS011;6674;49.152;11.918;2022-09-17T01:30:58;3.93;;;2.70;;
13218;SDS011;6674;49.152;11.918;2022-09-17T01:33:31;4.20;;;2.83;;
13218;SDS011;6674;49.152;11.918;2022-09-17T01:36:13;3.10;;;2.63;;
13218;SDS011;6674;49.152;11.918;2022-09-17T01:38:50;3.13;;;2.93;;
13218;SDS011;6674;49.152;11.918;2022-09-17T01:41:20;2.97;;;2.43;;
13218;SDS011;6674;49.152;11.918;2022-09-17T01:43:57;3.40;;;3.10;;
13218;SDS011;6674;49.152;11.918;2022-09-17T01:46:30;4.03;;;3.00;;
13218;SDS011;6674;49.152;11.918;2022-09-17T01:49:02;3.17;;;2.93;;
13218;SDS011;6674;49.152;11.918;2022-09-17T01:51:34;4.47;;;3.00;;
13218;SDS011;6674;49.152;11.918;2022-09-17T01:54:04;3.90;;;2.63;;
13218;SDS011;6674;49.152;11.918;2022-09-17T01:56:35;2.87;;;2.67;;
13218;SDS011;6674;49.152;11.918;2022-09-17T01:59:06;4.53;;;3.07;;
13218;SDS011;6674;49.152;11.918;2022-09-17T02:01:42;3.47;;;3.17;;
13218;SDS011;6674;49.152;11.918;2022-09-17T02:04:13;4.90;;;2.93;;
13218;SDS011;6674;49.152;11.918;2022-09-17T02:06:47;3.50;;;3.20;;
13218;SDS011;6674;49.152;11.918;2022-09-17T02:09:18;5.40;;;4.20;;
13218;SDS011;6674;49.152;11.918;2022-09-17T02:11:51;4.50;;;3.67;;
13218;SDS011;6674;49.152;11.918;2022-09-17T02:14:21;4.27;;;3.87;;
13218;SDS011;6674;49.152;11.918;2022-09-17T02:16:55;4.70;;;4.23;;
13218;SDS011;6674;49.152;11.918;2022-09-17T02:19:28;4.77;;;4.20;;
13218;SDS011;6674;49.152;11.918;2022-09-17T02:21:58;4.67;;;3.97;;
13218;SDS011;6674;49.152;11.918;2022-09-17T02:24:29;4.70;;;4.20;;
13218;SDS011;6674;49.152;11.918;2022-09-17T02:27:03;4.43;;;4.03;;
13218;SDS011;6674;49.152;11.918;2022-09-17T02:29:34;4.63;;;3.70;;
13218;SDS011;6674;49.152;11.918;2022-09-17T02:32:04;4.07;;;3.67;;
13218;SDS011;6674;49.152;11.918;2022-09-17T02:34:31;6.80;;;4.30;;
13218;SDS011;6674;49.152;11.918;2022-09-17T02:36:58;4.03;;;3.63;;
13218;SDS011;6674;49.152;11.918;2022-09-17T02:39:26;6.40;;;4.67;;
13218;SDS011;6674;49.152;11.918;2022-09-17T02:41:55;5.77;;;4.07;;
13218;SDS011;6674;49.152;11.918;2022-09-17T02:44:33;4.03;;;3.47;;
13218;SDS011;6674;49.152;11.918;2022-09-17T02:47:21;4.90;;;3.70;;
13218;SDS011;6674;49.152;11.918;2022-09-17T02:49:59;4.57;;;3.80;;
13218;SDS011;6674;49.152;11.918;2022-09-17T02:52:35;4.43;;;3.77;;
13218;SDS011;6674;49.152;11.918;2022-09-17T02:55:12;7.63;;;4.07;;
13218;SDS011;6674;49.152;11.918;2022-09-17T02:57:44;5.57;;;3.83;;
13218;SDS011;6674;49.152;11.918;2022-09-17T03:00:14;5.87;;;4.07;;
13218;SDS011;6674;49.152;11.918;2022-09-17T03:02:46;6.60;;;4.07;;
13218;SDS011;6674;49.152;11.918;2022-09-17T03:05:16;6.10;;;3.87;;
13218;SDS011;6674;49.152;11.918;2022-09-17T03:07:44;5.17;;;3.83;;
13218;SDS011;6674;49.152;11.918;2022-09-17T03:10:11;5.10;;;4.07;;
13218;SDS011;6674;49.152;11.918;2022-09-17T03:12:38;4.83;;;4.00;;
13218;SDS011;6674;49.152;11.918;2022-09-17T03:15:05;5.77;;;3.60;;
13218;SDS011;6674;49.152;11.918;2022-09-17T03:17:33;6.13;;;4.37;;
13218;SDS011;6674;49.152;11.918;2022-09-17T03:20:01;6.00;;;4.63;;
13218;SDS011;6674;49.152;11.918;2022-09-17T03:22:28;5.97;;;4.30;;
13218;SDS011;6674;49.152;11.918;2022-09-17T03:24:54;7.83;;;5.10;;
13218;SDS011;6674;49.152;11.918;2022-09-17T03:27:21;5.27;;;4.77;;
13218;SDS011;6674;49.152;11.918;2022-09-17T03:29:48;6.00;;;4.40;;
13218;SDS011;6674;49.152;11.918;2022-09-17T03:32:14;7.27;;;4.70;;
13218;SDS011;6674;49.152;11.918;2022-09-17T03:34:41;5.90;;;4.20;;
13218;SDS011;6674;49.152;11.918;2022-09-17T03:37:12;4.63;;;4.00;;
13218;SDS011;6674;49.152;11.918;2022-09-17T03:39:38;5.60;;;4.03;;
13218;SDS011;6674;49.152;11.918;2022-09-17T03:42:05;5.30;;;4.80;;
13218;SDS011;6674;49.152;11.918;2022-09-17T03:44:32;5.87;;;4.20;;
13218;SDS011;6674;49.152;11.918;2022-09-17T03:46:58;6.43;;;4.87;;
13218;SDS011;6674;49.152;11.918;2022-09-17T03:49:25;4.47;;;3.80;;
13218;SDS011;6674;49.152;11.918;2022-09-17T03:51:52;5.27;;;4.13;;
13218;SDS011;6674;49.152;11.918;2022-09-17T03:54:19;5.63;;;3.93;;
13218;SDS011;6674;49.152;11.918;2022-09-17T03:56:46;4.40;;;3.77;;
13218;SDS011;6674;49.152;11.918;2022-09-17T03:59:13;6.33;;;4.23;;
13218;SDS011;6674;49.152;11.918;2022-09-17T04:01:40;7.57;;;4.47;;
13218;SDS011;6674;49.152;11.918;2022-09-17T04:04:07;4.50;;;3.87;;
13218;SDS011;6674;49.152;11.918;2022-09-17T04:06:34;5.33;;;3.77;;
13218;SDS011;6674;49.152;11.918;2022-09-17T04:09:01;6.37;;;4.83;;
13218;SDS011;6674;49.152;11.918;2022-09-17T04:11:30;6.90;;;4.40;;
13218;SDS011;6674;49.152;11.918;2022-09-17T04:13:57;7.77;;;4.80;;
13218;SDS011;6674;49.152;11.918;2022-09-17T04:16:23;5.33;;;4.37;;
13218;SDS011;6674;49.152;11.918;2022-09-17T04:18:50;6.27;;;4.03;;
13218;SDS011;6674;49.152;11.918;2022-09-17T04:21:17;7.40;;;4.53;;
13218;SDS011;6674;49.152;11.918;2022-09-17T04:23:44;6.07;;;4.20;;
13218;SDS011;6674;49.152;11.918;2022-09-17T04:26:10;6.93;;;4.53;;
13218;SDS011;6674;49.152;11.918;2022-09-17T04:28:38;5.83;;;4.30;;
13218;SDS011;6674;49.152;11.918;2022-09-17T04:31:05;7.10;;;4.83;;
13218;SDS011;6674;49.152;11.918;2022-09-17T04:33:32;4.77;;;4.20;;
13218;SDS011;6674;49.152;11.918;2022-09-17T04:35:58;6.80;;;4.23;;
13218;SDS011;6674;49.152;11.918;2022-09-17T04:38:25;6.50;;;3.83;;
13218;SDS011;6674;49.152;11.918;2022-09-17T04:40:51;5.37;;;3.73;;
13218;SDS011;6674;49.152;11.918;2022-09-17T04:43:22;4.40;;;3.80;;
13218;SDS011;6674;49.152;11.918;2022-09-17T04:45:50;4.80;;;4.10;;
13218;SDS011;6674;49.152;11.918;2022-09-17T04:48:17;8.03;;;4.47;;
13218;SDS011;6674;49.152;11.918;2022-09-17T04:50:43;4.00;;;3.57;;
13218;SDS011;6674;49.152;11.918;2022-09-17T04:53:10;7.17;;;4.20;;
13218;SDS011;6674;49.152;11.918;2022-09-17T04:55:37;5.13;;;3.20;;
13218;SDS011;6674;49.152;11.918;2022-09-17T04:58:03;7.37;;;3.70;;
13218;SDS011;6674;49.152;11.918;2022-09-17T05:00:30;6.23;;;3.73;;
13218;SDS011;6674;49.152;11.918;2022-09-17T05:02:59;4.23;;;3.30;;
13218;SDS011;6674;49.152;11.918;2022-09-17T05:05:26;3.87;;;3.40;;
13218;SDS011;6674;49.152;11.918;2022-09-17T05:07:53;6.43;;;3.13;;
13218;SDS011;6674;49.152;11.918;2022-09-17T05:10:20;7.13;;;3.43;;
13218;SDS011;6674;49.152;11.918;2022-09-17T05:12:48;5.10;;;3.30;;
13218;SDS011;6674;49.152;11.918;2022-09-17T05:15:15;4.00;;;3.40;;
13218;SDS011;6674;49.152;11.918;2022-09-17T05:17:42;6.77;;;3.70;;
13218;SDS011;6674;49.152;11.918;2022-09-17T05:20:10;4.40;;;2.93;;
13218;SDS011;6674;49.152;11.918;2022-09-17T05:22:41;5.77;;;3.37;;
13218;SDS011;6674;49.152;11.918;2022-09-17T05:25:09;6.30;;;3.87;;
13218;SDS011;6674;49.152;11.918;2022-09-17T05:27:37;5.93;;;3.40;;
13218;SDS011;6674;49.152;11.918;2022-09-17T05:30:05;5.07;;;3.20;;
13218;SDS011;6674;49.152;11.918;2022-09-17T05:32:32;8.53;;;3.67;;
13218;SDS011;6674;49.152;11.918;2022-09-17T05:34:59;6.23;;;3.63;;
13218;SDS011;6674;49.152;11.918;2022-09-17T05:37:27;6.33;;;3.50;;
13218;SDS011;6674;49.152;11.918;2022-09-17T05:39:54;5.17;;;3.23;;
13218;SDS011;6674;49.152;11.918;2022-09-17T05:42:20;5.97;;;3.13;;
13218;SDS011;6674;49.152;11.918;2022-09-17T05:44:47;3.57;;;2.70;;
13218;SDS011;6674;49.152;11.918;2022-09-17T05:47:14;4.07;;;2.80;;
13218;SDS011;6674;49.152;11.918;2022-09-17T05:49:40;5.40;;;3.40;;
13218;SDS011;6674;49.152;11.918;2022-09-17T05:52:07;4.33;;;3.20;;
13218;SDS011;6674;49.152;11.918;2022-09-17T05:54:35;3.23;;;2.83;;
13218;SDS011;6674;49.152;11.918;2022-09-17T05:57:01;8.20;;;3.53;;
13218;SDS011;6674;49.152;11.918;2022-09-17T05:59:28;5.27;;;3.10;;
13218;SDS011;6674;49.152;11.918;2022-09-17T06:01:55;5.83;;;2.90;;
13218;SDS011;6674;49.152;11.918;2022-09-17T06:04:21;7.97;;;3.47;;
13218;SDS011;6674;49.152;11.918;2022-09-17T06:06:48;4.87;;;2.97;;
13218;SDS011;6674;49.152;11.918;2022-09-17T06:09:14;5.37;;;3.30;;
13218;SDS011;6674;49.152;11.918;2022-09-17T06:11:42;3.63;;;3.00;;
13218;SDS011;6674;49.152;11.918;2022-09-17T06:14:09;6.40;;;3.17;;
13218;SDS011;6674;49.152;11.918;2022-09-17T06:16:36;4.63;;;2.63;;
13218;SDS011;6674;49.152;11.918;2022-09-17T06:19:02;4.70;;;3.27;;
13218;SDS011;6674;49.152;11.918;2022-09-17T06:21:29;7.83;;;3.50;;
13218;SDS011;6674;49.152;11.918;2022-09-17T06:23:55;7.67;;;3.60;;
13218;SDS011;6674;49.152;11.918;2022-09-17T06:26:22;5.97;;;3.40;;
13218;SDS011;6674;49.152;11.918;2022-09-17T06:28:50;6.90;;;3.40;;
13218;SDS011;6674;49.152;11.918;2022-09-17T06:31:17;6.53;;;2.87;;
13218;SDS011;6674;49.152;11.918;2022-09-17T06:33:43;7.27;;;3.00;;
13218;SDS011;6674;49.152;11.918;2022-09-17T06:36:12;4.97;;;3.10;;
13218;SDS011;6674;49.152;11.918;2022-09-17T06:38:38;4.33;;;2.80;;
13218;SDS011;6674;49.152;11.918;2022-09-17T06:41:05;4.03;;;2.83;;
13218;SDS011;6674;49.152;11.918;2022-09-17T06:43:32;3.93;;;2.47;;
13218;SDS011;6674;49.152;11.918;2022-09-17T06:46:00;5.70;;;3.13;;
13218;SDS011;6674;49.152;11.918;2022-09-17T06:48:29;6.47;;;2.53;;
13218;SDS011;6674;49.152;11.918;2022-09-17T06:51:00;4.03;;;2.53;;
13218;SDS011;6674;49.152;11.918;2022-09-17T06:53:28;3.00;;;2.33;;
13218;SDS011;6674;49.152;11.918;2022-09-17T06:55:55;4.17;;;2.60;;
13218;SDS011;6674;49.152;11.918;2022-09-17T06:58:22;4.27;;;2.13;;
13218;SDS011;6674;49.152;11.918;2022-09-17T07:00:49;2.93;;;2.47;;
13218;SDS011;6674;49.152;11.918;2022-09-17T07:03:17;3.83;;;2.60;;
13218;SDS011;6674;49.152;11.918;2022-09-17T07:05:44;4.00;;;2.90;;
13218;SDS011;6674;49.152;11.918;2022-09-17T07:08:10;6.43;;;2.50;;
13218;SDS011;6674;49.152;11.918;2022-09-17T07:10:37;3.70;;;2.27;;
13218;SDS011;6674;49.152;11.918;2022-09-17T07:13:04;4.87;;;2.67;;
13218;SDS011;6674;49.152;11.918;2022-09-17T07:15:31;3.77;;;2.17;;
13218;SDS011;6674;49.152;11.918;2022-09-17T07:17:58;3.87;;;2.43;;
13218;SDS011;6674;49.152;11.918;2022-09-17T07:20:27;3.27;;;2.20;;
13218;SDS011;6674;49.152;11.918;2022-09-17T07:22:54;5.57;;;3.00;;
13218;SDS011;6674;49.152;11.918;2022-09-17T07:25:22;4.83;;;2.70;;
13218;SDS011;6674;49.152;11.918;2022-09-17T07:27:49;3.77;;;2.00;;
13218;SDS011;6674;49.152;11.918;2022-09-17T07:30:16;3.83;;;1.90;;
13218;SDS011;6674;49.152;11.918;2022-09-17T07:32:43;3.03;;;1.97;;
13218;SDS011;6674;49.152;11.918;2022-09-17T07:35:09;2.93;;;1.40;;
13218;SDS011;6674;49.152;11.918;2022-09-17T07:37:37;2.10;;;1.33;;
13218;SDS011;6674;49.152;11.918;2022-09-17T07:40:05;1.90;;;1.53;;
13218;SDS011;6674;49.152;11.918;2022-09-17T07:42:32;2.17;;;0.90;;
13218;SDS011;6674;49.152;11.918;2022-09-17T07:44:59;1.07;;;1.07;;
13218;SDS011;6674;49.152;11.918;2022-09-17T07:47:26;1.73;;;1.03;;
13218;SDS011;6674;49.152;11.918;2022-09-17T07:49:53;1.43;;;1.10;;
13218;SDS011;6674;49.152;11.918;2022-09-17T07:52:19;1.80;;;1.07;;
13218;SDS011;6674;49.152;11.918;2022-09-17T07:54:47;1.73;;;1.30;;
13218;SDS011;6674;49.152;11.918;2022-09-17T07:57:14;2.27;;;1.30;;
13218;SDS011;6674;49.152;11.918;2022-09-17T07:59:40;1.77;;;1.20;;
13218;SDS011;6674;49.152;11.918;2022-09-17T08:02:08;1.57;;;0.53;;
13218;SDS011;6674;49.152;11.918;2022-09-17T08:04:36;1.70;;;1.00;;
13218;SDS011;6674;49.152;11.918;2022-09-17T08:07:03;1.10;;;0.97;;
13218;SDS011;6674;49.152;11.918;2022-09-17T08:09:30;1.83;;;1.13;;
13218;SDS011;6674;49.152;11.918;2022-09-17T08:11:57;1.20;;;1.10;;
13218;SDS011;6674;49.152;11.918;2022-09-17T08:14:24;2.43;;;1.30;;
13218;SDS011;6674;49.152;11.918;2022-09-17T08:16:51;1.77;;;1.07;;
13218;SDS011;6674;49.152;11.918;2022-09-17T08:19:18;1.40;;;1.17;;
13218;SDS011;6674;49.152;11.918;2022-09-17T08:21:45;1.43;;;1.10;;
13218;SDS011;6674;49.152;11.918;2022-09-17T08:24:12;2.00;;;1.20;;
13218;SDS011;6674;49.152;11.918;2022-09-17T08:26:38;1.07;;;0.93;;
13218;SDS011;6674;49.152;11.918;2022-09-17T08:29:07;1.27;;;1.07;;
13218;SDS011;6674;49.152;11.918;2022-09-17T08:31:35;1.43;;;1.03;;
13218;SDS011;6674;49.152;11.918;2022-09-17T08:34:05;2.13;;;1.30;;
13218;SDS011;6674;49.152;11.918;2022-09-17T08:36:33;2.37;;;1.40;;
13218;SDS011;6674;49.152;11.918;2022-09-17T08:39:00;1.03;;;1.00;;
13218;SDS011;6674;49.152;11.918;2022-09-17T08:41:29;1.17;;;1.03;;
13218;SDS011;6674;49.152;11.918;2022-09-17T08:44:12;1.03;;;0.80;;
13218;SDS011;6674;49.152;11.918;2022-09-17T08:46:44;1.20;;;1.00;;
13218;SDS011;6674;49.152;11.918;2022-09-17T08:49:15;1.57;;;0.90;;
13218;SDS011;6674;49.152;11.918;2022-09-17T08:51:52;2.20;;;1.20;;
13218;SDS011;6674;49.152;11.918;2022-09-17T08:54:45;1.70;;;1.20;;
13218;SDS011;6674;49.152;11.918;2022-09-17T08:57:21;1.17;;;0.90;;
13218;SDS011;6674;49.152;11.918;2022-09-17T08:59:57;1.67;;;1.10;;
13218;SDS011;6674;49.152;11.918;2022-09-17T09:02:36;1.13;;;1.03;;
13218;SDS011;6674;49.152;11.918;2022-09-17T09:05:17;2.20;;;1.60;;
13218;SDS011;6674;49.152;11.918;2022-09-17T09:07:48;1.90;;;1.70;;
13218;SDS011;6674;49.152;11.918;2022-09-17T09:10:18;2.03;;;1.50;;
13218;SDS011;6674;49.152;11.918;2022-09-17T09:12:47;1.43;;;1.33;;
13218;SDS011;6674;49.152;11.918;2022-09-17T09:15:20;2.30;;;1.37;;
13218;SDS011;6674;49.152;11.918;2022-09-17T09:17:54;2.43;;;1.53;;
13218;SDS011;6674;49.152;11.918;2022-09-17T09:20:25;2.20;;;1.73;;
13218;SDS011;6674;49.152;11.918;2022-09-17T09:22:56;2.43;;;2.10;;
13218;SDS011;6674;49.152;11.918;2022-09-17T09:25:31;2.87;;;1.63;;
13218;SDS011;6674;49.152;11.918;2022-09-17T09:28:09;1.53;;;1.43;;
13218;SDS011;6674;49.152;11.918;2022-09-17T09:30:49;1.93;;;1.83;;
13218;SDS011;6674;49.152;11.918;2022-09-17T09:33:24;2.27;;;2.03;;
13218;SDS011;6674;49.152;11.918;2022-09-17T09:35:53;2.97;;;2.03;;
13218;SDS011;6674;49.152;11.918;2022-09-17T09:38:21;2.60;;;2.17;;
13218;SDS011;6674;49.152;11.918;2022-09-17T09:40:57;2.33;;;2.13;;
13218;SDS011;6674;49.152;11.918;2022-09-17T09:43:33;2.70;;;2.07;;
13218;SDS011;6674;49.152;11.918;2022-09-17T09:46:13;3.00;;;2.13;;
13218;SDS011;6674;49.152;11.918;2022-09-17T09:48:54;3.13;;;2.83;;
13218;SDS011;6674;49.152;11.918;2022-09-17T09:51:31;4.30;;;2.50;;
13218;SDS011;6674;49.152;11.918;2022-09-17T09:54:12;3.67;;;2.63;;
13218;SDS011;6674;49.152;11.918;2022-09-17T09:56:54;3.63;;;2.67;;
13218;SDS011;6674;49.152;11.918;2022-09-17T09:59:22;4.73;;;2.50;;
13218;SDS011;6674;49.152;11.918;2022-09-17T10:01:51;3.00;;;2.70;;
13218;SDS011;6674;49.152;11.918;2022-09-17T10:04:19;4.17;;;2.73;;
13218;SDS011;6674;49.152;11.918;2022-09-17T10:06:47;3.60;;;2.90;;
13218;SDS011;6674;49.152;11.918;2022-09-17T10:09:16;5.30;;;2.80;;
13218;SDS011;6674;49.152;11.918;2022-09-17T10:11:58;4.67;;;3.30;;
13218;SDS011;6674;49.152;11.918;2022-09-17T10:14:26;5.07;;;2.90;;
13218;SDS011;6674;49.152;11.918;2022-09-17T10:17:10;6.10;;;3.33;;
13218;SDS011;6674;49.152;11.918;2022-09-17T10:19:41;6.13;;;3.57;;
13218;SDS011;6674;49.152;11.918;2022-09-17T10:22:24;6.50;;;3.37;;
13218;SDS011;6674;49.152;11.918;2022-09-17T10:24:54;7.23;;;3.27;;
13218;SDS011;6674;49.152;11.918;2022-09-17T10:27:23;7.23;;;3.50;;
13218;SDS011;6674;49.152;11.918;2022-09-17T10:29:51;4.83;;;3.13;;
13218;SDS011;6674;49.152;11.918;2022-09-17T10:32:26;8.87;;;3.80;;
13218;SDS011;6674;49.152;11.918;2022-09-17T10:34:57;6.60;;;3.50;;
13218;SDS011;6674;49.152;11.918;2022-09-17T10:37:32;6.83;;;3.07;;
13218;SDS011;6674;49.152;11.918;2022-09-17T10:40:01;7.93;;;3.70;;
13218;SDS011;6674;49.152;11.918;2022-09-17T10:45:44;5.00;;;3.13;;
13218;SDS011;6674;49.152;11.918;2022-09-17T10:48:19;7.50;;;3.27;;
13218;SDS011;6674;49.152;11.918;2022-09-17T10:50:47;7.63;;;4.00;;
13218;SDS011;6674;49.152;11.918;2022-09-17T10:53:16;10.17;;;3.43;;
13218;SDS011;6674;49.152;11.918;2022-09-17T10:55:45;6.70;;;3.03;;
13218;SDS011;6674;49.152;11.918;2022-09-17T10:58:20;6.60;;;3.30;;
13218;SDS011;6674;49.152;11.918;2022-09-17T11:00:58;6.53;;;3.20;;
13218;SDS011;6674;49.152;11.918;2022-09-17T11:06:24;4.83;;;2.93;;
13218;SDS011;6674;49.152;11.918;2022-09-17T11:09:06;5.63;;;2.60;;
13218;SDS011;6674;49.152;11.918;2022-09-17T11:11:47;6.53;;;3.13;;
13218;SDS011;6674;49.152;11.918;2022-09-17T11:14:27;4.07;;;2.73;;
13218;SDS011;6674;49.152;11.918;2022-09-17T11:17:07;8.30;;;3.20;;
13218;SDS011;6674;49.152;11.918;2022-09-17T11:19:41;5.13;;;2.83;;
13218;SDS011;6674;49.152;11.918;2022-09-17T11:22:15;5.40;;;2.70;;
13218;SDS011;6674;49.152;11.918;2022-09-17T11:24:57;9.80;;;3.17;;
13218;SDS011;6674;49.152;11.918;2022-09-17T11:27:45;9.17;;;3.27;;
13218;SDS011;6674;49.152;11.918;2022-09-17T11:30:26;7.20;;;3.20;;
13218;SDS011;6674;49.152;11.918;2022-09-17T11:36:10;7.27;;;2.70;;
13218;SDS011;6674;49.152;11.918;2022-09-17T11:38:41;6.97;;;3.10;;
13218;SDS011;6674;49.152;11.918;2022-09-17T11:41:13;5.53;;;2.57;;
13218;SDS011;6674;49.152;11.918;2022-09-17T11:43:45;5.47;;;2.33;;
13218;SDS011;6674;49.152;11.918;2022-09-17T11:46:16;6.40;;;2.80;;
13218;SDS011;6674;49.152;11.918;2022-09-17T11:48:49;6.27;;;2.73;;
13218;SDS011;6674;49.152;11.918;2022-09-17T11:51:22;5.37;;;2.73;;
13218;SDS011;6674;49.152;11.918;2022-09-17T11:53:54;5.77;;;2.63;;
13218;SDS011;6674;49.152;11.918;2022-09-17T11:56:26;5.80;;;2.70;;
13218;SDS011;6674;49.152;11.918;2022-09-17T11:58:59;4.57;;;2.53;;
13218;SDS011;6674;49.152;11.918;2022-09-17T12:01:31;4.00;;;2.23;;
13218;SDS011;6674;49.152;11.918;2022-09-17T12:04:05;4.57;;;2.23;;
13218;SDS011;6674;49.152;11.918;2022-09-17T12:06:48;4.87;;;2.27;;
13218;SDS011;6674;49.152;11.918;2022-09-17T12:09:20;5.97;;;2.13;;
13218;SDS011;6674;49.152;11.918;2022-09-17T12:11:52;6.77;;;2.40;;
13218;SDS011;6674;49.152;11.918;2022-09-17T12:14:27;4.30;;;2.60;;
13218;SDS011;6674;49.152;11.918;2022-09-17T12:17:04;5.10;;;2.47;;
13218;SDS011;6674;49.152;11.918;2022-09-17T12:19:39;5.67;;;2.60;;
13218;SDS011;6674;49.152;11.918;2022-09-17T12:22:08;4.17;;;2.10;;
13218;SDS011;6674;49.152;11.918;2022-09-17T12:24:39;7.97;;;2.93;;
13218;SDS011;6674;49.152;11.918;2022-09-17T12:27:12;6.13;;;3.03;;
13218;SDS011;6674;49.152;11.918;2022-09-17T12:29:54;6.43;;;2.30;;
13218;SDS011;6674;49.152;11.918;2022-09-17T12:35:41;5.93;;;2.80;;
13218;SDS011;6674;49.152;11.918;2022-09-17T12:38:20;5.77;;;3.03;;
13218;SDS011;6674;49.152;11.918;2022-09-17T12:41:02;3.70;;;2.43;;
13218;SDS011;6674;49.152;11.918;2022-09-17T12:43:47;5.13;;;2.17;;
13218;SDS011;6674;49.152;11.918;2022-09-17T12:46:31;5.67;;;2.50;;
13218;SDS011;6674;49.152;11.918;2022-09-17T12:49:15;3.93;;;2.37;;
13218;SDS011;6674;49.152;11.918;2022-09-17T12:52:15;4.57;;;2.37;;
13218;SDS011;6674;49.152;11.918;2022-09-17T12:54:51;4.10;;;2.20;;
13218;SDS011;6674;49.152;11.918;2022-09-17T12:57:36;6.70;;;2.60;;
13218;SDS011;6674;49.152;11.918;2022-09-17T13:00:09;3.20;;;1.77;;
13218;SDS011;6674;49.152;11.918;2022-09-17T13:02:39;5.33;;;2.10;;
13218;SDS011;6674;49.152;11.918;2022-09-17T13:08:12;4.37;;;2.20;;
13218;SDS011;6674;49.152;11.918;2022-09-17T13:11:09;5.37;;;1.80;;
13218;SDS011;6674;49.152;11.918;2022-09-17T13:13:54;3.47;;;1.67;;
13218;SDS011;6674;49.152;11.918;2022-09-17T13:16:30;2.63;;;1.90;;
13218;SDS011;6674;49.152;11.918;2022-09-17T13:19:05;4.20;;;1.97;;
13218;SDS011;6674;49.152;11.918;2022-09-17T13:21:42;4.13;;;2.10;;
13218;SDS011;6674;49.152;11.918;2022-09-17T13:24:17;3.47;;;2.13;;
13218;SDS011;6674;49.152;11.918;2022-09-17T13:26:46;4.23;;;2.40;;
13218;SDS011;6674;49.152;11.918;2022-09-17T13:29:21;3.90;;;2.30;;
13218;SDS011;6674;49.152;11.918;2022-09-17T13:32:42;5.70;;;2.20;;
13218;SDS011;6674;49.152;11.918;2022-09-17T13:38:16;4.53;;;2.00;;
13218;SDS011;6674;49.152;11.918;2022-09-17T13:40:44;3.27;;;2.07;;
13218;SDS011;6674;49.152;11.918;2022-09-17T13:43:12;2.93;;;2.27;;
13218;SDS011;6674;49.152;11.918;2022-09-17T13:48:35;3.20;;;1.90;;
13218;SDS011;6674;49.152;11.918;2022-09-17T13:54:10;3.60;;;1.80;;
13218;SDS011;6674;49.152;11.918;2022-09-17T13:56:40;3.97;;;1.70;;
13218;SDS011;6674;49.152;11.918;2022-09-17T13:59:10;2.87;;;2.07;;
13218;SDS011;6674;49.152;11.918;2022-09-17T14:07:40;2.57;;;1.20;;
13218;SDS011;6674;49.152;11.918;2022-09-17T14:16:20;2.70;;;1.50;;
13218;SDS011;6674;49.152;11.918;2022-09-17T14:19:01;1.30;;;1.20;;
13218;SDS011;6674;49.152;11.918;2022-09-17T14:21:44;1.87;;;1.70;;
13218;SDS011;6674;49.152;11.918;2022-09-17T14:24:33;5.60;;;2.20;;
13218;SDS011;6674;49.152;11.918;2022-09-17T14:27:12;3.13;;;1.93;;
13218;SDS011;6674;49.152;11.918;2022-09-17T14:30:01;2.63;;;1.53;;
13218;SDS011;6674;49.152;11.918;2022-09-17T14:32:38;2.63;;;1.50;;
13218;SDS011;6674;49.152;11.918;2022-09-17T14:35:13;2.20;;;1.57;;
13218;SDS011;6674;49.152;11.918;2022-09-17T14:37:42;1.70;;;1.60;;
13218;SDS011;6674;49.152;11.918;2022-09-17T14:40:15;2.37;;;1.70;;
13218;SDS011;6674;49.152;11.918;2022-09-17T14:42:43;1.90;;;1.40;;
13218;SDS011;6674;49.152;11.918;2022-09-17T14:45:13;3.03;;;1.90;;
13218;SDS011;6674;49.152;11.918;2022-09-17T14:47:44;2.30;;;1.80;;
13218;SDS011;6674;49.152;11.918;2022-09-17T14:50:21;2.27;;;2.00;;
13218;SDS011;6674;49.152;11.918;2022-09-17T14:52:49;4.80;;;1.97;;
13218;SDS011;6674;49.152;11.918;2022-09-17T14:55:19;2.40;;;1.33;;
13218;SDS011;6674;49.152;11.918;2022-09-17T14:57:49;2.87;;;0.90;;
13218;SDS011;6674;49.152;11.918;2022-09-17T15:00:19;1.77;;;0.90;;
13218;SDS011;6674;49.152;11.918;2022-09-17T15:02:51;0.83;;;0.63;;
13218;SDS011;6674;49.152;11.918;2022-09-17T15:05:27;0.50;;;0.37;;
13218;SDS011;6674;49.152;11.918;2022-09-17T15:08:06;1.37;;;0.70;;
13218;SDS011;6674;49.152;11.918;2022-09-17T15:10:47;1.07;;;0.60;;
13218;SDS011;6674;49.152;11.918;2022-09-17T15:13:17;0.97;;;0.50;;
13218;SDS011;6674;49.152;11.918;2022-09-17T15:15:53;1.43;;;0.90;;
13218;SDS011;6674;49.152;11.918;2022-09-17T15:18:30;1.70;;;0.90;;
13218;SDS011;6674;49.152;11.918;2022-09-17T15:21:00;1.10;;;0.80;;
13218;SDS011;6674;49.152;11.918;2022-09-17T15:23:29;1.27;;;0.80;;
13218;SDS011;6674;49.152;11.918;2022-09-17T15:26:01;1.20;;;1.10;;
13218;SDS011;6674;49.152;11.918;2022-09-17T15:28:30;1.27;;;0.70;;
13218;SDS011;6674;49.152;11.918;2022-09-17T15:31:00;1.03;;;0.73;;
13218;SDS011;6674;49.152;11.918;2022-09-17T15:33:27;1.10;;;0.80;;
13218;SDS011;6674;49.152;11.918;2022-09-17T15:35:58;0.90;;;0.60;;
13218;SDS011;6674;49.152;11.918;2022-09-17T15:38:27;1.37;;;1.00;;
13218;SDS011;6674;49.152;11.918;2022-09-17T15:41:10;1.70;;;1.03;;
13218;SDS011;6674;49.152;11.918;2022-09-17T15:43:45;0.80;;;0.80;;
13218;SDS011;6674;49.152;11.918;2022-09-17T15:46:21;1.87;;;1.00;;
13218;SDS011;6674;49.152;11.918;2022-09-17T15:48:49;1.13;;;1.00;;
13218;SDS011;6674;49.152;11.918;2022-09-17T15:51:21;1.30;;;1.20;;
13218;SDS011;6674;49.152;11.918;2022-09-17T15:53:51;1.53;;;1.00;;